createdAt,value
2023-03-13T00:02:16.540Z,6.20
2023-03-13T00:04:44.712Z,5.72
2023-03-13T00:07:13.864Z,5.65
2023-03-13T00:09:42.014Z,5.75
2023-03-13T00:12:10.365Z,5.78
2023-03-13T00:14:39.736Z,6.00
2023-03-13T00:17:07.621Z,5.55
2023-03-13T00:19:35.546Z,6.28
2023-03-13T00:22:03.388Z,5.43
2023-03-13T00:24:31.272Z,5.10
2023-03-13T00:27:03.184Z,6.07
2023-03-13T00:29:31.640Z,6.03
2023-03-13T00:32:02.052Z,7.60
2023-03-13T00:34:30.139Z,5.47
2023-03-13T00:36:59.689Z,5.50
2023-03-13T00:39:29.006Z,6.32
2023-03-13T00:41:56.864Z,5.78
2023-03-13T00:44:24.702Z,5.35
2023-03-13T00:46:52.610Z,6.32
2023-03-13T00:49:21.840Z,7.05
2023-03-13T00:51:49.722Z,6.32
2023-03-13T00:54:17.543Z,5.88
2023-03-13T00:56:45.420Z,5.57
2023-03-13T00:59:13.294Z,5.35
2023-03-13T01:01:42.767Z,6.32
2023-03-13T01:04:12.798Z,5.80
2023-03-13T01:06:43.369Z,5.82
2023-03-13T01:09:13.741Z,6.05
2023-03-13T01:11:44.080Z,6.07
2023-03-13T01:14:14.741Z,6.22
2023-03-13T01:16:43.430Z,5.82
2023-03-13T01:19:13.810Z,6.30
2023-03-13T01:21:43.744Z,5.78
2023-03-13T01:24:11.896Z,6.43
2023-03-13T01:26:39.845Z,5.78
2023-03-13T01:29:07.668Z,6.05
2023-03-13T01:31:36.904Z,5.38
2023-03-13T01:34:08.053Z,5.78
2023-03-13T01:36:37.779Z,5.25
2023-03-13T01:39:07.648Z,6.20
2023-03-13T01:41:35.988Z,5.63
2023-03-13T01:44:04.213Z,5.38
2023-03-13T01:46:38.364Z,5.18
2023-03-13T01:49:15.391Z,6.45
2023-03-13T01:52:26.991Z,5.60
2023-03-13T01:55:06.161Z,5.30
2023-03-13T01:57:38.460Z,5.35
2023-03-13T02:00:10.827Z,5.93
2023-03-13T02:02:45.250Z,5.30
2023-03-13T02:05:14.648Z,5.60
2023-03-13T02:07:46.935Z,5.40
2023-03-13T02:10:18.531Z,5.60
2023-03-13T02:12:46.771Z,5.75
2023-03-13T02:15:17.436Z,5.72
2023-03-13T02:17:46.883Z,5.32
2023-03-13T02:20:16.147Z,5.15
2023-03-13T02:22:50.855Z,5.57
2023-03-13T02:25:31.366Z,4.88
2023-03-13T02:28:04.432Z,4.60
2023-03-13T02:30:34.925Z,4.75
2023-03-13T02:33:04.865Z,5.25
2023-03-13T02:35:34.162Z,4.82
2023-03-13T02:38:07.092Z,4.40
2023-03-13T02:40:40.456Z,4.30
2023-03-13T02:43:14.067Z,4.85
2023-03-13T02:45:42.254Z,4.70
2023-03-13T02:48:11.558Z,4.97
2023-03-13T02:50:39.514Z,4.75
2023-03-13T02:53:08.691Z,3.83
2023-03-13T02:55:41.895Z,4.45
2023-03-13T02:58:12.283Z,3.85
2023-03-13T03:00:40.206Z,3.97
2023-03-13T03:03:08.189Z,5.10
2023-03-13T03:05:37.985Z,3.70
2023-03-13T03:08:06.004Z,4.20
2023-03-13T03:10:36.502Z,4.95
2023-03-13T03:13:06.348Z,4.10
2023-03-13T03:15:34.273Z,3.88
2023-03-13T03:18:02.125Z,4.13
2023-03-13T03:20:30.548Z,3.70
2023-03-13T03:22:58.485Z,3.53
2023-03-13T03:25:27.782Z,3.40
2023-03-13T03:27:55.668Z,4.30
2023-03-13T03:30:24.926Z,4.55
2023-03-13T03:32:53.343Z,3.55
2023-03-13T03:35:23.209Z,3.97
2023-03-13T03:37:51.103Z,4.38
2023-03-13T03:40:21.377Z,3.60
2023-03-13T03:42:49.411Z,3.45
2023-03-13T03:45:17.419Z,3.58
2023-03-13T03:47:46.632Z,4.38
2023-03-13T03:50:14.530Z,4.00
2023-03-13T03:52:52.475Z,3.40
2023-03-13T03:55:21.362Z,4.60
2023-03-13T03:57:49.276Z,4.10
2023-03-13T04:00:27.771Z,3.53
2023-03-13T04:02:57.111Z,4.18
2023-03-13T04:05:25.394Z,3.22
2023-03-13T04:07:53.555Z,4.03
2023-03-13T04:10:21.694Z,3.92
2023-03-13T04:12:49.695Z,4.35
2023-03-13T04:15:17.706Z,3.15
2023-03-13T04:17:45.869Z,3.67
2023-03-13T04:20:16.390Z,4.00
2023-03-13T04:22:44.940Z,3.47
2023-03-13T04:25:13.852Z,3.88
2023-03-13T04:27:42.417Z,3.28
2023-03-13T04:30:12.109Z,4.05
2023-03-13T04:33:00.408Z,3.97
2023-03-13T04:35:43.043Z,3.47
2023-03-13T04:38:23.293Z,3.53
2023-03-13T04:41:29.498Z,3.28
2023-03-13T04:44:10.499Z,4.28
2023-03-13T04:46:56.698Z,3.63
2023-03-13T04:49:47.699Z,3.55
2023-03-13T04:52:40.585Z,3.00
2023-03-13T04:55:15.905Z,3.50
2023-03-13T04:57:54.754Z,3.88
2023-03-13T05:00:45.884Z,2.95
2023-03-13T05:03:33.866Z,3.65
2023-03-13T05:06:24.359Z,3.88
2023-03-13T05:09:13.850Z,3.47
2023-03-13T05:12:00.397Z,3.78
2023-03-13T05:14:46.632Z,4.05
2023-03-13T05:17:35.375Z,3.83
2023-03-13T05:20:22.165Z,3.53
2023-03-13T05:22:55.682Z,3.67
2023-03-13T05:25:43.504Z,3.63
2023-03-13T05:28:37.336Z,3.83
2023-03-13T05:31:22.037Z,3.60
2023-03-13T05:33:50.036Z,3.17
2023-03-13T05:36:45.699Z,3.58
2023-03-13T05:39:31.969Z,3.35
2023-03-13T05:42:21.498Z,3.35
2023-03-13T05:45:10.909Z,3.55
2023-03-13T05:47:58.829Z,3.55
2023-03-13T05:50:58.969Z,3.42
2023-03-13T05:53:49.994Z,4.15
2023-03-13T05:56:29.053Z,3.50
2023-03-13T06:02:08.870Z,3.92
2023-03-13T06:07:10.070Z,3.90
2023-03-13T06:09:38.021Z,3.60
2023-03-13T06:12:06.635Z,3.30
2023-03-13T06:14:36.040Z,3.70
2023-03-13T06:17:25.543Z,4.32
2023-03-13T06:19:53.532Z,3.88
2023-03-13T06:22:21.428Z,4.07
2023-03-13T06:24:49.683Z,3.78
2023-03-13T06:27:17.646Z,3.78
2023-03-13T06:29:46.849Z,4.15
2023-03-13T06:32:14.832Z,3.95
2023-03-13T06:34:42.675Z,4.05
2023-03-13T06:37:10.715Z,3.67
2023-03-13T06:39:38.715Z,5.05
2023-03-13T06:42:07.683Z,4.72
2023-03-13T06:44:35.563Z,4.00
2023-03-13T06:47:05.161Z,3.83
2023-03-13T06:49:33.216Z,3.83
2023-03-13T06:52:01.124Z,3.78
2023-03-13T06:54:29.068Z,3.60
2023-03-13T06:56:56.932Z,3.58
2023-03-13T06:59:24.791Z,3.90
2023-03-13T07:01:52.688Z,4.38
2023-03-13T07:04:22.008Z,4.38
2023-03-13T07:06:49.990Z,4.00
2023-03-13T07:09:19.989Z,3.67
2023-03-13T07:11:47.974Z,3.25
2023-03-13T07:14:17.638Z,3.45
2023-03-13T07:16:46.574Z,4.35
2023-03-13T07:19:15.273Z,3.92
2023-03-13T07:21:45.102Z,3.55
2023-03-13T07:24:13.029Z,3.67
2023-03-13T07:26:46.533Z,3.60
2023-03-13T07:29:22.275Z,3.63
2023-03-13T07:31:50.212Z,3.38
2023-03-13T07:34:18.424Z,3.38
2023-03-13T07:36:47.680Z,4.45
2023-03-13T07:39:15.584Z,4.30
2023-03-13T07:41:43.496Z,3.47
2023-03-13T07:44:16.688Z,3.30
2023-03-13T07:46:44.570Z,3.95
2023-03-13T07:49:12.466Z,3.80
2023-03-13T07:51:43.868Z,3.70
2023-03-13T07:54:13.721Z,3.72
2023-03-13T07:56:41.774Z,3.08
2023-03-13T07:59:10.368Z,3.08
2023-03-13T08:01:38.461Z,4.30
2023-03-13T08:04:06.785Z,3.17
2023-03-13T08:06:36.757Z,3.75
2023-03-13T08:09:05.619Z,3.65
2023-03-13T08:11:35.242Z,3.92
2023-03-13T08:14:03.582Z,4.25
2023-03-13T08:16:34.260Z,4.20
2023-03-13T08:19:05.834Z,3.33
2023-03-13T08:21:35.277Z,3.22
2023-03-13T08:24:06.853Z,3.42
2023-03-13T08:26:38.045Z,4.65
2023-03-13T08:29:08.679Z,3.97
2023-03-13T08:31:38.350Z,2.55
2023-03-13T08:34:06.272Z,2.92
2023-03-13T08:36:35.853Z,3.42
2023-03-13T08:39:06.370Z,2.95
2023-03-13T08:41:37.577Z,3.10
2023-03-13T08:44:06.481Z,2.75
2023-03-13T08:46:36.155Z,3.65
2023-03-13T08:49:05.721Z,2.95
2023-03-13T08:51:34.214Z,3.15
2023-03-13T08:54:03.412Z,3.08
2023-03-13T08:56:32.503Z,2.90
2023-03-13T08:59:03.614Z,3.00
2023-03-13T09:01:33.152Z,3.08
2023-03-13T09:04:04.240Z,2.67
2023-03-13T09:06:33.543Z,2.92
2023-03-13T09:09:02.135Z,2.60
2023-03-13T09:11:30.078Z,2.60
2023-03-13T09:13:59.721Z,3.28
2023-03-13T09:16:30.954Z,2.60
2023-03-13T09:18:59.375Z,3.03
2023-03-13T09:21:29.066Z,3.05
2023-03-13T09:23:57.294Z,3.08
2023-03-13T09:26:26.054Z,2.75
2023-03-13T09:28:54.366Z,2.78
2023-03-13T09:31:24.195Z,2.85
2023-03-13T09:33:54.298Z,2.30
2023-03-13T09:36:23.828Z,2.45
2023-03-13T09:38:53.032Z,2.58
2023-03-13T09:41:27.916Z,2.55
2023-03-13T09:44:03.186Z,3.28
2023-03-13T09:46:38.752Z,2.88
2023-03-13T09:49:17.297Z,2.85
2023-03-13T09:51:52.340Z,2.50
2023-03-13T09:54:27.092Z,2.80
2023-03-13T09:57:00.876Z,2.53
2023-03-13T09:59:38.882Z,2.10
2023-03-13T10:02:21.411Z,2.00
2023-03-13T10:04:54.840Z,2.20
2023-03-13T10:07:22.845Z,2.40
2023-03-13T10:09:50.747Z,2.83
2023-03-13T10:12:21.759Z,1.67
2023-03-13T10:15:01.703Z,2.33
2023-03-13T10:17:34.327Z,2.35
2023-03-13T10:20:18.172Z,1.90
2023-03-13T10:22:51.114Z,2.25
2023-03-13T10:25:28.105Z,2.75
2023-03-13T10:27:56.245Z,1.83
2023-03-13T10:30:27.038Z,1.75
2023-03-13T10:32:58.646Z,2.38
2023-03-13T10:35:34.566Z,2.05
2023-03-13T10:38:06.382Z,2.45
2023-03-13T10:40:34.357Z,2.03
2023-03-13T10:43:05.199Z,2.10
2023-03-13T10:45:36.572Z,2.38
2023-03-13T10:48:12.684Z,1.60
2023-03-13T10:50:45.796Z,2.35
2023-03-13T10:53:26.950Z,2.83
2023-03-13T10:55:56.808Z,1.80
2023-03-13T10:58:29.986Z,2.03
2023-03-13T11:01:15.633Z,1.63
2023-03-13T11:03:44.428Z,1.90
2023-03-13T11:06:26.205Z,1.33
2023-03-13T11:09:04.953Z,1.70
2023-03-13T11:11:44.173Z,1.90
2023-03-13T11:14:17.308Z,1.50
2023-03-13T11:16:50.338Z,1.50
2023-03-13T11:19:42.564Z,1.38
2023-03-13T11:22:29.006Z,1.48
2023-03-13T11:25:12.061Z,1.30
2023-03-13T11:27:45.805Z,1.50
2023-03-13T11:30:26.523Z,1.23
2023-03-13T11:32:57.107Z,1.40
2023-03-13T11:35:39.938Z,1.25
2023-03-13T11:38:19.206Z,1.30
2023-03-13T11:40:59.841Z,1.40
2023-03-13T11:43:49.068Z,1.30
2023-03-13T11:46:28.711Z,1.33
2023-03-13T11:49:14.833Z,0.88
2023-03-13T11:51:55.926Z,1.35
2023-03-13T11:54:44.979Z,1.27
2023-03-13T11:57:18.106Z,1.00
2023-03-13T11:59:54.229Z,1.52
2023-03-13T12:02:29.337Z,1.15
2023-03-13T12:05:02.447Z,1.10
2023-03-13T12:07:35.410Z,1.17
2023-03-13T12:10:11.324Z,1.35
2023-03-13T12:12:44.465Z,0.90
2023-03-13T12:17:54.705Z,0.80
2023-03-13T12:20:26.484Z,1.13
2023-03-13T12:23:05.040Z,1.20
2023-03-13T12:25:39.819Z,0.85
2023-03-13T12:28:24.930Z,0.70
2023-03-13T12:31:01.463Z,1.02
2023-03-13T12:33:36.342Z,1.00
2023-03-13T12:36:10.752Z,0.68
2023-03-13T12:38:42.593Z,0.70
2023-03-13T12:41:20.717Z,0.98
2023-03-13T12:44:07.179Z,0.93
2023-03-13T12:46:44.147Z,1.00
2023-03-13T12:49:41.196Z,1.05
2023-03-13T12:52:42.035Z,0.80
2023-03-13T12:55:45.928Z,0.70
2023-03-13T12:58:30.693Z,0.73
2023-03-13T13:01:03.895Z,0.80
2023-03-13T13:03:36.590Z,0.93
2023-03-13T13:06:10.062Z,1.03
2023-03-13T13:08:41.860Z,0.80
2023-03-13T13:11:48.995Z,0.60
2023-03-13T13:14:59.380Z,0.90
2023-03-13T13:17:50.301Z,0.80
2023-03-13T13:20:36.811Z,0.80
2023-03-13T13:23:37.115Z,1.17
2023-03-13T13:26:48.464Z,0.90
2023-03-13T13:29:55.293Z,0.60
2023-03-13T13:32:49.550Z,0.82
2023-03-13T13:35:32.650Z,0.82
2023-03-13T13:38:29.218Z,0.70
2023-03-13T13:41:02.407Z,1.00
2023-03-13T13:43:33.334Z,0.80
2023-03-13T13:46:12.022Z,0.82
2023-03-13T13:48:43.269Z,0.85
2023-03-13T13:51:28.492Z,0.73
2023-03-13T13:54:00.492Z,0.88
2023-03-13T13:56:44.897Z,1.10
2023-03-13T13:59:43.831Z,0.80
2023-03-13T14:02:22.224Z,1.00
2023-03-13T14:04:56.142Z,0.90
2023-03-13T14:07:29.863Z,0.82
2023-03-13T14:10:16.164Z,0.93
2023-03-13T14:12:48.378Z,0.60
2023-03-13T14:15:20.061Z,0.95
2023-03-13T14:17:50.104Z,0.82
2023-03-13T14:20:33.743Z,1.00
2023-03-13T14:23:04.665Z,0.93
2023-03-13T14:25:45.157Z,1.00
2023-03-13T14:28:19.010Z,1.00
2023-03-13T14:30:48.633Z,1.30
2023-03-13T14:33:16.747Z,1.17
2023-03-13T14:35:46.647Z,0.98
2023-03-13T14:38:19.892Z,0.93
2023-03-13T14:43:23.545Z,1.35
2023-03-13T14:45:52.326Z,0.85
2023-03-13T14:48:24.692Z,1.05
2023-03-13T14:51:14.317Z,0.80
2023-03-13T14:53:56.110Z,0.90
2023-03-13T14:56:33.093Z,1.08
2023-03-13T14:59:16.881Z,1.13
2023-03-13T15:01:45.785Z,1.20
2023-03-13T15:04:13.738Z,1.42
2023-03-13T15:06:43.378Z,1.00
2023-03-13T15:09:21.780Z,1.10
2023-03-13T15:12:00.575Z,1.08
2023-03-13T15:14:38.146Z,0.95
2023-03-13T15:17:13.989Z,1.27
2023-03-13T15:19:42.224Z,1.33
2023-03-13T15:22:15.950Z,1.02
2023-03-13T15:24:48.453Z,1.20
2023-03-13T15:27:24.029Z,1.10
2023-03-13T15:29:52.388Z,1.25
2023-03-13T15:32:27.743Z,1.02
2023-03-13T15:34:58.466Z,1.00
2023-03-13T15:37:28.939Z,1.17
2023-03-13T15:39:58.148Z,1.00
2023-03-13T15:42:26.509Z,1.15
2023-03-13T15:44:54.368Z,0.90
2023-03-13T15:47:23.282Z,1.30
2023-03-13T15:49:51.197Z,1.63
2023-03-13T15:52:20.442Z,1.10
2023-03-13T15:54:51.235Z,1.50
2023-03-13T15:57:23.162Z,1.10
2023-03-13T15:59:51.300Z,1.20
2023-03-13T16:02:22.207Z,1.10
2023-03-13T16:04:52.304Z,1.15
2023-03-13T16:07:22.038Z,1.13
2023-03-13T16:09:51.296Z,1.02
2023-03-13T16:12:19.251Z,1.13
2023-03-13T16:14:47.186Z,1.17
2023-03-13T16:17:17.760Z,1.33
2023-03-13T16:19:47.120Z,1.65
2023-03-13T16:22:15.676Z,1.25
2023-03-13T16:24:43.571Z,1.70
2023-03-13T16:27:15.290Z,1.20
2023-03-13T16:29:43.308Z,1.33
2023-03-13T16:32:13.545Z,1.40
2023-03-13T16:34:41.513Z,1.25
2023-03-13T16:37:14.320Z,1.20
2023-03-13T16:39:42.961Z,1.33
2023-03-13T16:42:11.734Z,1.50
2023-03-13T16:44:41.804Z,1.35
2023-03-13T16:47:18.572Z,1.15
2023-03-13T16:49:47.633Z,0.88
2023-03-13T16:52:16.934Z,1.40
2023-03-13T16:54:45.405Z,1.05
2023-03-13T16:57:14.707Z,1.15
2023-03-13T16:59:44.206Z,0.98
2023-03-13T17:02:17.209Z,1.15
2023-03-13T17:04:45.627Z,1.45
2023-03-13T17:07:19.282Z,1.45
2023-03-13T17:09:47.755Z,1.42
2023-03-13T17:12:15.918Z,1.42
2023-03-13T17:14:45.590Z,1.40
2023-03-13T17:17:15.766Z,1.35
2023-03-13T17:19:43.812Z,1.13
2023-03-13T17:22:13.751Z,1.40
2023-03-13T17:24:42.327Z,1.17
2023-03-13T17:27:13.397Z,1.40
2023-03-13T17:29:42.208Z,1.48
2023-03-13T17:32:13.958Z,1.50
2023-03-13T17:34:42.716Z,1.42
2023-03-13T17:37:16.799Z,1.50
2023-03-13T17:39:45.189Z,1.58
2023-03-13T17:42:13.579Z,1.30
2023-03-13T17:44:42.450Z,1.75
2023-03-13T17:47:15.188Z,1.67
2023-03-13T17:49:43.855Z,1.13
2023-03-13T17:52:14.957Z,1.40
2023-03-13T17:54:43.485Z,1.40
2023-03-13T17:57:16.701Z,1.52
2023-03-13T18:02:16.981Z,1.35
2023-03-13T18:04:45.680Z,1.60
2023-03-13T18:07:22.345Z,3.20
2023-03-13T18:09:50.351Z,1.33
2023-03-13T18:12:18.977Z,1.50
2023-03-13T18:14:47.272Z,1.33
2023-03-13T18:17:19.376Z,1.60
2023-03-13T18:19:48.127Z,1.50
2023-03-13T18:22:17.545Z,1.33
2023-03-13T18:24:46.245Z,1.30
2023-03-13T18:27:16.121Z,1.38
2023-03-13T18:29:45.333Z,1.52
2023-03-13T18:32:14.763Z,1.17
2023-03-13T18:34:44.942Z,1.20
2023-03-13T18:37:21.619Z,1.27
2023-03-13T18:39:51.286Z,1.17
2023-03-13T18:42:19.925Z,1.63
2023-03-13T18:44:48.090Z,1.50
2023-03-13T18:47:18.287Z,1.27
2023-03-13T18:49:50.064Z,1.30
2023-03-13T18:52:18.493Z,1.60
2023-03-13T18:54:46.541Z,1.15
2023-03-13T18:57:16.973Z,1.10
2023-03-13T18:59:45.364Z,1.17
2023-03-13T19:02:15.274Z,1.15
2023-03-13T19:04:43.289Z,1.60
2023-03-13T19:07:19.883Z,1.50
2023-03-13T19:09:47.806Z,1.45
2023-03-13T19:12:16.515Z,1.23
2023-03-13T19:14:44.597Z,1.55
2023-03-13T19:17:17.690Z,1.30
2023-03-13T19:19:45.602Z,1.50
2023-03-13T19:22:15.328Z,1.38
2023-03-13T19:24:43.313Z,1.60
2023-03-13T19:27:16.773Z,1.85
2023-03-13T19:29:45.302Z,1.77
2023-03-13T19:32:15.145Z,1.73
2023-03-13T19:34:43.085Z,1.50
2023-03-13T19:37:14.717Z,1.60
2023-03-13T19:39:44.295Z,1.63
2023-03-13T19:42:12.301Z,2.05
2023-03-13T19:44:41.407Z,1.73
2023-03-13T19:47:14.666Z,1.85
2023-03-13T19:49:42.732Z,1.50
2023-03-13T19:52:10.668Z,1.83
2023-03-13T19:54:38.624Z,1.85
2023-03-13T19:57:11.113Z,1.95
2023-03-13T19:59:40.152Z,1.80
2023-03-13T20:02:09.284Z,1.58
2023-03-13T20:04:37.389Z,2.00
2023-03-13T20:07:05.407Z,1.92
2023-03-13T20:09:35.450Z,1.77
2023-03-13T20:12:03.522Z,1.70
2023-03-13T20:14:32.800Z,1.90
2023-03-13T20:17:00.699Z,1.98
2023-03-13T20:19:29.621Z,1.80
2023-03-13T20:22:03.641Z,1.88
2023-03-13T20:24:33.276Z,2.05
2023-03-13T20:27:01.343Z,2.03
2023-03-13T20:29:29.531Z,2.47
2023-03-13T20:32:00.263Z,2.00
2023-03-13T20:34:29.025Z,2.08
2023-03-13T20:36:59.099Z,1.90
2023-03-13T20:39:27.554Z,1.95
2023-03-13T20:41:56.360Z,2.28
2023-03-13T20:44:24.694Z,2.17
2023-03-13T20:46:52.753Z,2.50
2023-03-13T20:49:22.467Z,2.20
2023-03-13T20:51:51.160Z,2.10
2023-03-13T20:54:19.248Z,2.00
2023-03-13T20:56:47.408Z,2.00
2023-03-13T20:59:15.315Z,2.00
2023-03-13T21:01:44.005Z,2.40
2023-03-13T21:04:12.069Z,2.20
2023-03-13T21:06:41.808Z,1.98
2023-03-13T21:09:09.683Z,2.40
2023-03-13T21:11:37.646Z,2.20
2023-03-13T21:14:05.585Z,1.70
2023-03-13T21:16:33.514Z,2.25
2023-03-13T21:19:01.451Z,1.98
2023-03-13T21:21:29.606Z,1.98
2023-03-13T21:23:58.917Z,1.77
2023-03-13T21:26:26.921Z,1.50
2023-03-13T21:28:54.868Z,1.70
2023-03-13T21:31:22.950Z,1.52
2023-03-13T21:33:51.652Z,1.42
2023-03-13T21:36:21.855Z,1.42
2023-03-13T21:38:51.003Z,1.50
2023-03-13T21:41:23.047Z,1.65
2023-03-13T21:43:51.252Z,1.20
2023-03-13T21:46:19.940Z,1.60
2023-03-13T21:48:48.069Z,1.40
2023-03-13T21:51:16.793Z,1.27
2023-03-13T21:53:45.306Z,1.33
2023-03-13T21:56:15.429Z,1.30
2023-03-13T21:58:46.053Z,1.20
2023-03-13T22:01:15.102Z,1.25
2023-03-13T22:03:43.101Z,0.88
2023-03-13T22:06:14.578Z,1.10
2023-03-13T22:08:42.778Z,1.15
2023-03-13T22:11:11.329Z,0.70
2023-03-13T22:13:39.458Z,1.40
2023-03-13T22:16:11.526Z,0.88
2023-03-13T22:18:40.719Z,1.45
2023-03-13T22:21:09.014Z,1.00
2023-03-13T22:23:36.959Z,1.08
2023-03-13T22:26:05.292Z,0.90
2023-03-13T22:28:33.215Z,1.00
2023-03-13T22:31:01.635Z,1.05
2023-03-13T22:33:30.931Z,1.05
2023-03-13T22:35:59.391Z,1.17
2023-03-13T22:38:27.325Z,0.75
2023-03-13T22:40:59.250Z,0.70
2023-03-13T22:43:27.676Z,0.93
2023-03-13T22:45:55.552Z,0.90
2023-03-13T22:48:23.591Z,0.90
2023-03-13T22:51:01.438Z,0.70
2023-03-13T22:53:29.813Z,0.88
2023-03-13T22:55:57.664Z,0.70
2023-03-13T22:58:25.587Z,1.10
2023-03-13T23:00:53.494Z,0.80
2023-03-13T23:03:22.120Z,1.05
2023-03-13T23:05:50.045Z,0.90
2023-03-13T23:08:19.317Z,0.80
2023-03-13T23:10:48.416Z,1.15
2023-03-13T23:13:16.671Z,1.10
2023-03-13T23:15:59.692Z,0.95
2023-03-13T23:18:28.939Z,0.88
2023-03-13T23:20:56.812Z,0.70
2023-03-13T23:23:26.090Z,0.90
2023-03-13T23:25:54.153Z,0.85
2023-03-13T23:28:22.059Z,0.85
2023-03-13T23:30:49.915Z,1.00
2023-03-13T23:33:17.750Z,1.02
2023-03-13T23:35:45.687Z,0.93
2023-03-13T23:38:13.819Z,1.35
2023-03-13T23:40:43.038Z,0.93
2023-03-13T23:43:10.894Z,0.95
2023-03-13T23:45:39.756Z,0.80
2023-03-13T23:48:07.904Z,0.70
2023-03-13T23:50:37.312Z,0.77
2023-03-13T23:53:05.254Z,1.00
2023-03-13T23:55:33.274Z,0.85
2023-03-13T23:58:02.503Z,0.80
